Terminal Aerodrome Forecast
Issued by NWS Omaha/Valley, NE

Home | Current Version | Previous Version | Text Only | Print | Product List | Glossary On
Versions: 1 2 3 4 5 6 7 8 9 10 11 12 13 14 15 16 17 18 19 20 21 22 23 24 25 26 27 28 29 30 31 32 33 34 35 36 37 38 39 40 41 42 43 44 45 46 47 48
279
FTUS43 KOAX 141721
TAFOFK
TAF
KOFK 141721Z 1418/1518 31008KT P6SM OVC025
     FM150000 22005KT P6SM OVC050
      TEMPO 1506/1509 6SM -SN BR OVC025
     FM151400 29008KT P6SM SCT150=

USA.gov is the U.S. government's official web portal to all federal, state and local government web resources and services.